Time;durP1;ratioP1;P1;durP2;ratioP2;P2;SDS_P1;SDS_P2;PMS_P1;PMS_P2;Temp;Humidity;BMP_temperature;BMP_pressure;BME280_temperature;BME280_humidity;BME280_pressure;Samples;Min_cycle;Max_cycle;Signal;HPM_P1;HPM_P2
2024/02/09 00:00:29;;;;;;;3.30;2.17;;;1.20;99.90;;;;;;5059952;28;20209;-91
2024/02/09 00:02:55;;;;;;;2.73;2.20;;;1.20;99.90;;;;;;5041348;28;20346;-91
2024/02/09 00:05:20;;;;;;;2.70;1.97;;;1.20;99.90;;;;;;5035885;28;20195;-90
2024/02/09 00:07:48;;;;;;;2.73;2.17;;;1.20;99.90;;;;;;5037829;28;20192;-93
2024/02/09 00:10:18;;;;;;;2.60;2.00;;;1.20;99.90;;;;;;5031159;28;20194;-90
2024/02/09 00:12:51;;;;;;;2.73;2.17;;;1.30;99.90;;;;;;5041516;28;20524;-92
2024/02/09 00:15:20;;;;;;;3.33;2.20;;;1.20;99.90;;;;;;5032736;28;20197;-92
2024/02/09 00:17:47;;;;;;;3.33;2.17;;;1.20;99.90;;;;;;5057520;28;20624;-91
2024/02/09 00:20:15;;;;;;;2.40;1.70;;;1.30;99.90;;;;;;5034046;28;20190;-91
2024/02/09 00:22:40;;;;;;;2.27;1.80;;;1.30;99.90;;;;;;5040590;28;20197;-90
2024/02/09 00:25:10;;;;;;;3.40;1.47;;;1.30;99.90;;;;;;5040338;28;20250;-90
2024/02/09 00:27:39;;;;;;;1.93;1.60;;;1.20;99.90;;;;;;5050309;28;20219;-91
2024/02/09 00:30:14;;;;;;;1.93;1.53;;;1.20;99.90;;;;;;5050542;28;20539;-91
2024/02/09 00:32:39;;;;;;;1.90;1.50;;;1.20;99.90;;;;;;5032253;28;20217;-90
2024/02/09 00:35:07;;;;;;;2.63;1.50;;;1.20;99.90;;;;;;5028458;28;20197;-92
2024/02/09 00:37:33;;;;;;;1.37;1.27;;;1.20;99.90;;;;;;5046597;28;20240;-90
2024/02/09 00:40:08;;;;;;;3.23;2.27;;;1.20;99.90;;;;;;5057302;28;20202;-91
2024/02/09 00:42:34;;;;;;;1.67;1.10;;;1.20;99.90;;;;;;5040271;28;20196;-91
2024/02/09 00:45:23;;;;;;;1.20;1.00;;;1.20;99.90;;;;;;5043674;28;20215;-90
2024/02/09 00:47:49;;;;;;;1.53;1.20;;;1.20;99.90;;;;;;5057715;28;20221;-90
2024/02/09 00:50:18;;;;;;;2.03;1.40;;;1.30;99.90;;;;;;5031781;28;20217;-91
2024/02/09 00:52:54;;;;;;;1.10;0.90;;;1.20;99.90;;;;;;5040163;28;20178;-92
2024/02/09 00:55:20;;;;;;;1.67;1.17;;;1.20;99.90;;;;;;5034670;28;20178;-91
2024/02/09 00:57:46;;;;;;;1.10;1.00;;;1.20;99.90;;;;;;5037847;28;20178;-89
2024/02/09 01:00:30;;;;;;;1.27;1.17;;;1.20;99.90;;;;;;5031659;28;20182;-91
2024/02/09 01:02:57;;;;;;;1.47;1.20;;;1.30;99.90;;;;;;5039718;28;20183;-90
2024/02/09 01:05:24;;;;;;;1.43;1.27;;;1.20;99.90;;;;;;5025827;28;20183;-91
2024/02/09 01:07:50;;;;;;;1.83;1.43;;;1.30;99.90;;;;;;5039318;28;20184;-91
2024/02/09 01:10:18;;;;;;;2.20;1.40;;;1.30;99.90;;;;;;5026546;28;20186;-90
2024/02/09 02:46:31;;;;;;;2.97;2.63;;;1.30;99.90;;;;;;5047900;28;20344;-89
2024/02/09 03:05:27;;;;;;;3.57;2.70;;;1.30;99.90;;;;;;5055516;28;20266;-90
2024/02/09 03:07:54;;;;;;;3.40;2.80;;;1.30;99.90;;;;;;5021296;28;20197;-90
2024/02/09 03:10:20;;;;;;;3.27;2.70;;;1.30;99.90;;;;;;5029375;28;20622;-91
2024/02/09 03:12:46;;;;;;;3.03;2.70;;;1.30;99.90;;;;;;5036558;28;20213;-90
2024/02/09 03:15:14;;;;;;;3.50;2.83;;;1.40;99.90;;;;;;5030548;28;20240;-91
2024/02/09 03:17:41;;;;;;;3.87;3.40;;;1.40;99.90;;;;;;5037585;28;20255;-90
2024/02/09 03:22:44;;;;;;;3.67;3.00;;;1.40;99.90;;;;;;5196477;22;20243;-82
2024/02/09 03:25:10;;;;;;;3.60;3.20;;;1.40;99.90;;;;;;5035361;28;20186;-82
2024/02/09 03:27:40;;;;;;;4.03;3.30;;;1.40;99.90;;;;;;5035842;28;20185;-82
2024/02/09 03:30:07;;;;;;;6.47;3.57;;;1.40;99.90;;;;;;5045678;28;20186;-82
2024/02/09 03:32:35;;;;;;;3.70;3.30;;;1.40;99.90;;;;;;5044116;28;20235;-82
2024/02/09 03:35:04;;;;;;;4.20;3.30;;;1.40;99.90;;;;;;5038774;28;20275;-82
2024/02/09 03:37:33;;;;;;;3.40;2.93;;;1.40;99.90;;;;;;5058012;28;20220;-82
2024/02/09 03:40:08;;;;;;;4.43;3.73;;;1.40;99.90;;;;;;5053553;28;20762;-82
2024/02/09 03:42:33;;;;;;;3.37;3.07;;;1.40;99.90;;;;;;5036098;28;20665;-81
2024/02/09 03:44:59;;;;;;;4.43;3.17;;;1.40;99.90;;;;;;5053552;28;20189;-84
2024/02/09 03:47:28;;;;;;;5.73;3.87;;;1.40;99.90;;;;;;5035690;28;20200;-82
2024/02/09 03:49:54;;;;;;;5.00;3.57;;;1.40;99.90;;;;;;5035497;28;20190;-82
2024/02/09 03:52:21;;;;;;;4.37;3.63;;;1.40;99.90;;;;;;5052610;28;20253;-82
2024/02/09 03:54:51;;;;;;;5.10;3.53;;;1.40;99.90;;;;;;5053499;28;20186;-82
2024/02/09 03:57:21;;;;;;;3.77;3.30;;;1.40;99.90;;;;;;5043767;28;20212;-82
2024/02/09 03:59:47;;;;;;;4.30;3.57;;;1.40;99.90;;;;;;5035432;28;20181;-81
2024/02/09 04:02:13;;;;;;;4.63;3.67;;;1.40;99.90;;;;;;5053619;28;20190;-82
2024/02/09 04:04:39;;;;;;;4.23;3.33;;;1.50;99.90;;;;;;5035271;28;20189;-82
2024/02/09 04:07:08;;;;;;;4.10;3.63;;;1.50;99.90;;;;;;5043282;28;20221;-83
2024/02/09 04:09:35;;;;;;;4.23;3.60;;;1.50;99.90;;;;;;5035503;28;20276;-83
2024/02/09 04:12:02;;;;;;;4.10;3.57;;;1.50;99.90;;;;;;5046502;28;20181;-83
2024/02/09 04:14:29;;;;;;;4.10;3.33;;;1.50;99.90;;;;;;5064442;28;20193;-83
2024/02/09 04:16:58;;;;;;;5.20;3.23;;;1.50;99.90;;;;;;5053016;28;20201;-81
2024/02/09 04:19:25;;;;;;;3.97;3.20;;;1.50;99.90;;;;;;5034795;28;20189;-83
2024/02/09 04:21:51;;;;;;;4.20;3.57;;;1.50;99.90;;;;;;5034196;28;20233;-82
2024/02/09 04:24:23;;;;;;;3.60;3.20;;;1.50;99.90;;;;;;5046117;28;20265;-81
2024/02/09 04:26:50;;;;;;;4.03;3.37;;;1.50;99.90;;;;;;5034845;28;20196;-82
2024/02/09 04:29:16;;;;;;;5.63;3.20;;;1.50;99.90;;;;;;5034763;28;20212;-82
2024/02/09 04:31:43;;;;;;;3.03;2.73;;;1.50;99.90;;;;;;5035187;28;20589;-82
2024/02/09 04:34:13;;;;;;;3.23;2.77;;;1.50;99.90;;;;;;5053128;28;20612;-83
2024/02/09 04:36:46;;;;;;;4.00;3.50;;;1.50;99.90;;;;;;5034973;28;20222;-82
2024/02/09 04:39:12;;;;;;;3.60;2.93;;;1.50;99.90;;;;;;5031895;28;20210;-83
2024/02/09 04:41:50;;;;;;;3.57;3.13;;;1.50;99.90;;;;;;5039003;28;20197;-83
2024/02/09 04:44:16;;;;;;;3.60;3.17;;;1.50;99.90;;;;;;5043810;28;20181;-82
2024/02/09 04:46:45;;;;;;;3.73;3.03;;;1.50;99.90;;;;;;5041852;28;20624;-83
2024/02/09 04:49:11;;;;;;;3.73;3.23;;;1.50;99.90;;;;;;5056722;28;20182;-83
2024/02/09 04:51:44;;;;;;;4.10;3.40;;;1.50;99.90;;;;;;5038478;28;20197;-82
2024/02/09 04:54:10;;;;;;;5.97;4.80;;;1.50;99.90;;;;;;5037931;28;20681;-82
2024/02/09 04:56:36;;;;;;;3.63;3.13;;;1.50;99.90;;;;;;5056571;28;20206;-84
2024/02/09 04:59:10;;;;;;;3.60;3.10;;;1.60;99.90;;;;;;5038443;28;20189;-84
2024/02/09 05:01:38;;;;;;;3.80;3.30;;;1.50;99.90;;;;;;5038602;28;20194;-82
2024/02/09 05:04:09;;;;;;;4.10;3.23;;;1.60;99.90;;;;;;5042047;28;20488;-82
2024/02/09 05:06:35;;;;;;;3.57;2.97;;;1.60;99.90;;;;;;5042264;28;20235;-83
2024/02/09 05:09:06;;;;;;;3.47;3.17;;;1.60;99.90;;;;;;5046602;28;20277;-82
2024/02/09 05:11:34;;;;;;;3.87;3.10;;;1.60;99.90;;;;;;5045255;28;20189;-83
2024/02/09 05:14:00;;;;;;;3.53;3.10;;;1.50;99.90;;;;;;5056394;28;20216;-82
2024/02/09 05:16:29;;;;;;;3.90;3.20;;;1.50;99.90;;;;;;5037698;28;20241;-82
2024/02/09 05:18:55;;;;;;;3.83;3.43;;;1.50;99.90;;;;;;5037749;28;20276;-82
2024/02/09 05:21:21;;;;;;;4.90;3.70;;;1.60;99.90;;;;;;5063783;28;20284;-83
2024/02/09 05:23:46;;;;;;;4.13;3.63;;;1.60;99.90;;;;;;5037591;28;20194;-82
2024/02/09 05:26:13;;;;;;;4.33;3.70;;;1.60;99.90;;;;;;5055930;28;20190;-81
2024/02/09 05:28:42;;;;;;;3.53;3.23;;;1.60;99.90;;;;;;5037922;28;20194;-82
2024/02/09 05:31:16;;;;;;;4.37;3.80;;;1.60;99.90;;;;;;5037535;28;20216;-83
2024/02/09 05:33:43;;;;;;;4.43;3.60;;;1.60;99.90;;;;;;5055573;28;20180;-82
2024/02/09 05:36:29;;;;;;;4.33;3.73;;;1.60;99.90;;;;;;5037665;28;20244;-83
2024/02/09 05:39:00;;;;;;;3.87;3.43;;;1.60;99.90;;;;;;5063772;28;20184;-83
2024/02/09 05:41:26;;;;;;;4.47;3.73;;;1.60;99.90;;;;;;5055511;28;20182;-83
2024/02/09 05:43:52;;;;;;;4.90;4.00;;;1.60;99.90;;;;;;5037412;28;20197;-84
2024/02/09 05:46:18;;;;;;;4.70;4.03;;;1.60;99.90;;;;;;5055555;28;20188;-83
2024/02/09 05:48:45;;;;;;;4.23;3.37;;;1.60;99.90;;;;;;5054947;28;20185;-82
2024/02/09 05:51:15;;;;;;;6.03;4.30;;;1.60;99.90;;;;;;5037188;28;20186;-83
2024/02/09 05:53:41;;;;;;;5.30;4.10;;;1.60;99.90;;;;;;5038461;28;20189;-83
2024/02/09 05:56:19;;;;;;;5.00;4.23;;;1.70;99.90;;;;;;5055112;28;20220;-83
2024/02/09 05:58:46;;;;;;;5.40;4.37;;;1.70;99.90;;;;;;5037180;28;20182;-83
2024/02/09 06:01:13;;;;;;;5.53;4.37;;;1.70;99.90;;;;;;5036331;28;20193;-82
2024/02/09 06:03:41;;;;;;;5.17;4.23;;;1.70;99.90;;;;;;5036692;28;20281;-82
2024/02/09 06:06:10;;;;;;;5.27;4.50;;;1.70;99.90;;;;;;5037053;28;20190;-82
2024/02/09 06:08:36;;;;;;;4.57;4.03;;;1.70;99.90;;;;;;5036648;28;20190;-83
2024/02/09 06:11:03;;;;;;;5.37;4.43;;;1.70;99.90;;;;;;5054720;28;20190;-83
2024/02/09 06:13:30;;;;;;;5.73;4.70;;;1.70;99.90;;;;;;5036827;28;20628;-84
2024/02/09 06:15:59;;;;;;;5.53;4.60;;;1.70;99.90;;;;;;5036701;28;20301;-82
2024/02/09 06:18:27;;;;;;;6.00;4.90;;;1.70;99.90;;;;;;5054847;28;20188;-83
2024/02/09 06:20:53;;;;;;;6.40;4.90;;;1.70;99.90;;;;;;5036608;28;20599;-82
2024/02/09 06:23:26;;;;;;;5.40;4.57;;;1.80;99.90;;;;;;5036257;28;20252;-83
2024/02/09 06:25:52;;;;;;;6.50;5.23;;;1.70;99.90;;;;;;5054941;28;20185;-82
2024/02/09 06:28:21;;;;;;;6.77;5.10;;;1.70;99.90;;;;;;5054584;28;20514;-82
2024/02/09 06:30:47;;;;;;;5.70;4.77;;;1.70;99.90;;;;;;5054152;28;20235;-82
2024/02/09 06:33:15;;;;;;;7.03;5.50;;;1.80;99.90;;;;;;5054230;28;20231;-82
2024/02/09 06:35:43;;;;;;;5.40;4.90;;;1.80;99.90;;;;;;5036225;28;20221;-81
2024/02/09 06:38:09;;;;;;;7.00;5.47;;;1.80;99.90;;;;;;5036177;28;20882;-82
2024/02/09 06:40:34;;;;;;;8.70;5.50;;;1.80;99.90;;;;;;5044583;28;20632;-82
2024/02/09 06:43:00;;;;;;;6.87;5.23;;;1.80;99.90;;;;;;5054083;28;20185;-81
2024/02/09 06:45:26;;;;;;;6.23;5.27;;;1.80;99.90;;;;;;5054151;28;20186;-82
2024/02/09 06:47:51;;;;;;;6.20;5.17;;;1.80;99.90;;;;;;5054208;28;20182;-83
2024/02/09 06:50:20;;;;;;;6.20;5.10;;;1.80;99.90;;;;;;5054195;28;20185;-84
2024/02/09 06:52:48;;;;;;;5.87;4.90;;;1.80;99.90;;;;;;5035646;28;20243;-82
2024/02/09 06:55:14;;;;;;;6.80;5.40;;;1.80;99.90;;;;;;5041191;28;20289;-86
2024/02/09 06:57:44;;;;;;;5.73;4.73;;;1.90;99.90;;;;;;5039521;28;20276;-82
2024/02/09 07:00:13;;;;;;;7.07;5.70;;;1.80;99.90;;;;;;5035676;28;20192;-83
2024/02/09 07:02:39;;;;;;;7.50;5.33;;;1.80;99.90;;;;;;5043550;28;20565;-83
2024/02/09 07:05:10;;;;;;;8.57;5.70;;;1.80;99.90;;;;;;5045776;28;20182;-82
2024/02/09 07:07:47;;;;;;;6.70;5.23;;;1.90;99.90;;;;;;5035760;28;20208;-83
2024/02/09 07:10:14;;;;;;;6.30;5.10;;;1.90;99.90;;;;;;5037079;28;20196;-84
2024/02/09 07:12:51;;;;;;;6.23;5.03;;;1.90;99.90;;;;;;5044113;28;20178;-84
2024/02/09 07:15:17;;;;;;;6.43;5.17;;;1.90;99.90;;;;;;5044143;28;20193;-83
2024/02/09 07:17:46;;;;;;;5.80;4.60;;;1.90;99.90;;;;;;5053815;28;20699;-84
2024/02/09 07:20:16;;;;;;;6.13;4.87;;;1.90;99.90;;;;;;5058151;28;20181;-83
2024/02/09 07:22:42;;;;;;;6.43;5.00;;;1.90;99.90;;;;;;5037893;28;20565;-83
2024/02/09 07:25:08;;;;;;;6.13;5.00;;;1.90;99.90;;;;;;5053616;28;20189;-84
2024/02/09 07:27:34;;;;;;;6.57;5.27;;;1.90;99.90;;;;;;5043509;28;20287;-84
2024/02/09 07:30:00;;;;;;;6.33;5.27;;;2.00;99.90;;;;;;5036044;28;20622;-83
2024/02/09 07:32:25;;;;;;;6.73;5.20;;;2.00;99.90;;;;;;5035505;28;20528;-84
2024/02/09 07:34:52;;;;;;;6.70;5.33;;;2.00;99.90;;;;;;5053338;28;20182;-84
2024/02/09 07:37:19;;;;;;;6.60;5.27;;;2.00;99.90;;;;;;5035191;28;20605;-83
2024/02/09 07:39:45;;;;;;;7.37;5.30;;;2.00;99.90;;;;;;5035473;28;20189;-83
2024/02/09 07:42:11;;;;;;;7.70;5.73;;;2.00;99.90;;;;;;5039717;28;20196;-84
2024/02/09 07:44:37;;;;;;;7.27;5.20;;;2.00;99.90;;;;;;5047342;28;20264;-85
2024/02/09 07:47:04;;;;;;;7.73;5.90;;;2.00;99.90;;;;;;5053726;28;20182;-84
2024/02/09 07:49:31;;;;;;;6.37;4.83;;;2.00;99.90;;;;;;5042968;28;20185;-84
2024/02/09 07:52:01;;;;;;;7.40;5.60;;;2.00;99.90;;;;;;5052316;28;20188;-84
2024/02/09 07:54:26;;;;;;;6.47;5.60;;;2.10;99.90;;;;;;5063898;28;20678;-83
2024/02/09 07:56:53;;;;;;;6.47;5.57;;;2.10;99.90;;;;;;5032703;28;20213;-84
2024/02/09 07:59:19;;;;;;;7.43;5.67;;;2.10;99.90;;;;;;5030810;28;20236;-83
2024/02/09 08:01:47;;;;;;;7.27;5.57;;;2.10;99.90;;;;;;5050413;28;20527;-85
2024/02/09 08:04:13;;;;;;;6.87;5.57;;;2.20;99.90;;;;;;5032379;28;20189;-84
2024/02/09 08:06:39;;;;;;;7.63;5.57;;;2.20;99.90;;;;;;5032659;28;20189;-84
2024/02/09 08:09:05;;;;;;;7.13;5.77;;;2.20;99.90;;;;;;5030959;28;20196;-83
2024/02/09 08:11:31;;;;;;;8.83;6.13;;;2.20;99.90;;;;;;5034215;28;20185;-83
2024/02/09 08:14:00;;;;;;;8.33;5.50;;;2.20;99.90;;;;;;5037777;28;20655;-83
2024/02/09 08:16:26;;;;;;;8.37;5.67;;;2.20;99.90;;;;;;5036212;28;20214;-83
2024/02/09 08:18:53;;;;;;;7.23;5.57;;;2.30;99.90;;;;;;5035999;28;20243;-84
2024/02/09 08:21:20;;;;;;;7.87;6.30;;;2.30;99.90;;;;;;5036107;28;20201;-84
2024/02/09 08:23:46;;;;;;;8.67;6.20;;;2.20;99.90;;;;;;5036095;28;20259;-83
2024/02/09 08:26:11;;;;;;;7.77;5.40;;;2.30;99.90;;;;;;5035821;28;20190;-83
2024/02/09 08:28:43;;;;;;;7.67;6.20;;;2.30;99.90;;;;;;5036248;28;20213;-83
2024/02/09 08:31:14;;;;;;;6.83;5.53;;;2.40;99.90;;;;;;5036400;28;20683;-83
2024/02/09 08:33:41;;;;;;;8.80;6.60;;;2.40;99.90;;;;;;5035569;28;20229;-84
2024/02/09 08:36:09;;;;;;;9.53;6.30;;;2.40;99.90;;;;;;5054236;28;20217;-84
2024/02/09 08:38:35;;;;;;;8.03;5.87;;;2.40;99.90;;;;;;5053490;28;20182;-83
2024/02/09 08:41:02;;;;;;;8.67;6.30;;;2.50;99.90;;;;;;5035966;28;20201;-83
2024/02/09 08:43:29;;;;;;;9.67;6.60;;;2.50;99.90;;;;;;5036178;28;20288;-84
2024/02/09 08:45:54;;;;;;;9.03;7.03;;;2.50;99.90;;;;;;5035812;28;20181;-83
2024/02/09 08:48:20;;;;;;;8.27;6.37;;;2.60;99.90;;;;;;5035684;28;20193;-84
2024/02/09 08:50:46;;;;;;;10.00;7.10;;;2.60;99.90;;;;;;5035938;28;20697;-82
2024/02/09 08:53:12;;;;;;;8.40;6.33;;;2.70;99.90;;;;;;5035393;28;20192;-84
2024/02/09 08:55:38;;;;;;;9.53;6.97;;;2.70;99.90;;;;;;5036047;28;20185;-83
2024/02/09 08:58:09;;;;;;;10.63;6.60;;;2.70;99.90;;;;;;5053906;28;20178;-83
2024/02/09 09:00:35;;;;;;;8.67;6.67;;;2.70;99.90;;;;;;5035686;28;20752;-84
2024/02/09 09:03:01;;;;;;;9.23;6.80;;;2.70;99.90;;;;;;5055194;28;20234;-84
2024/02/09 09:05:27;;;;;;;9.23;6.87;;;2.80;99.90;;;;;;5053570;28;20178;-84
2024/02/09 09:07:56;;;;;;;9.67;6.93;;;2.90;99.90;;;;;;5052863;28;20185;-83
2024/02/09 09:10:22;;;;;;;11.13;7.40;;;2.90;99.90;;;;;;5053764;28;20174;-83
2024/02/09 09:12:49;;;;;;;8.87;6.83;;;3.00;99.90;;;;;;5053587;28;20186;-84
2024/02/09 09:15:15;;;;;;;10.23;7.23;;;3.00;99.90;;;;;;5035241;28;20189;-84
2024/02/09 09:17:41;;;;;;;8.93;6.97;;;3.00;99.90;;;;;;5053145;28;20636;-86
2024/02/09 09:20:10;;;;;;;9.73;7.63;;;3.10;99.90;;;;;;5035099;28;20177;-83
2024/02/09 09:22:41;;;;;;;10.50;7.03;;;3.10;99.90;;;;;;5034053;28;20320;-84
2024/02/09 09:25:07;;;;;;;9.87;6.93;;;3.10;99.90;;;;;;5035309;28;20181;-84
2024/02/09 09:27:34;;;;;;;11.77;7.73;;;3.20;99.90;;;;;;5036482;28;20261;-84
2024/02/09 09:30:01;;;;;;;11.33;7.43;;;3.20;99.90;;;;;;5036688;28;20650;-84
2024/02/09 09:32:27;;;;;;;10.83;7.53;;;3.20;99.90;;;;;;5056255;28;20209;-83
2024/02/09 09:34:53;;;;;;;12.30;7.80;;;3.20;99.90;;;;;;5052991;28;20232;-83
2024/02/09 09:37:19;;;;;;;10.57;7.73;;;3.30;99.90;;;;;;5052486;28;20719;-83
2024/02/09 09:39:44;;;;;;;11.13;7.87;;;3.40;99.90;;;;;;5035086;28;20192;-84
2024/02/09 09:42:10;;;;;;;10.70;7.33;;;3.40;99.90;;;;;;5034796;28;20186;-83
2024/02/09 09:44:36;;;;;;;11.10;7.90;;;3.50;99.90;;;;;;5035391;28;20710;-84
2024/02/09 09:47:02;;;;;;;13.93;8.47;;;3.50;99.90;;;;;;5053001;28;20236;-83
2024/02/09 09:49:30;;;;;;;12.40;7.67;;;3.60;99.90;;;;;;5034362;28;20189;-83
2024/02/09 09:52:00;;;;;;;11.50;7.97;;;3.60;99.90;;;;;;5034313;28;20509;-83
2024/02/09 09:54:30;;;;;;;10.23;7.27;;;3.60;99.90;;;;;;5034361;28;20217;-84
2024/02/09 09:56:59;;;;;;;9.53;7.40;;;3.60;99.90;;;;;;5052417;28;20213;-83
2024/02/09 09:59:25;;;;;;;9.43;7.17;;;3.70;99.90;;;;;;5034343;28;20239;-84
2024/02/09 10:01:52;;;;;;;9.67;7.10;;;3.70;99.90;;;;;;5052679;28;20182;-84
2024/02/09 10:04:18;;;;;;;11.90;7.83;;;3.80;99.90;;;;;;5034282;28;20186;-84
2024/02/09 10:06:44;;;;;;;12.10;8.20;;;3.80;99.90;;;;;;5051945;28;20239;-86
2024/02/09 10:09:12;;;;;;;12.50;8.70;;;3.80;99.90;;;;;;5036462;28;20699;-86
2024/02/09 10:11:40;;;;;;;11.33;7.63;;;3.90;99.90;;;;;;5032054;28;20510;-85
2024/02/09 10:14:14;;;;;;;12.13;8.33;;;3.90;99.90;;;;;;5034548;28;20194;-84
2024/02/09 10:16:41;;;;;;;12.60;8.13;;;4.00;99.90;;;;;;5051178;28;20274;-85
2024/02/09 10:19:07;;;;;;;12.30;8.17;;;4.00;99.90;;;;;;5036155;28;20447;-85
2024/02/09 10:21:34;;;;;;;11.47;8.17;;;4.10;99.90;;;;;;5051149;28;20225;-84
2024/02/09 10:24:00;;;;;;;14.77;9.07;;;4.20;99.90;;;;;;5035245;28;20186;-85
2024/02/09 10:26:26;;;;;;;13.10;8.03;;;4.30;99.90;;;;;;5051711;28;20742;-84
2024/02/09 10:28:53;;;;;;;13.07;8.50;;;4.30;99.90;;;;;;5039539;28;20277;-84
2024/02/09 10:31:22;;;;;;;12.00;8.57;;;4.40;99.90;;;;;;5037293;28;20625;-85
2024/02/09 10:33:51;;;;;;;14.13;8.83;;;4.50;99.90;;;;;;5051764;28;20562;-85
2024/02/09 10:36:17;;;;;;;11.77;8.33;;;4.50;99.90;;;;;;5052580;28;20240;-85
2024/02/09 10:38:48;;;;;;;16.33;8.43;;;4.60;99.90;;;;;;5050356;28;20210;-86
2024/02/09 10:41:17;;;;;;;13.17;8.90;;;4.70;99.90;;;;;;5037621;28;20182;-85
2024/02/09 10:43:51;;;;;;;14.87;8.53;;;4.80;99.90;;;;;;5051223;28;20251;-85
2024/02/09 10:46:19;;;;;;;12.70;8.43;;;4.70;99.90;;;;;;5051072;28;20204;-85
2024/02/09 10:48:51;;;;;;;11.87;8.73;;;4.80;99.90;;;;;;5035419;28;20181;-84
2024/02/09 10:51:18;;;;;;;10.97;8.00;;;4.80;99.90;;;;;;5037452;28;20182;-84
2024/02/09 10:54:09;;;;;;;12.30;7.97;;;4.80;99.90;;;;;;5036789;28;20192;-85
2024/02/09 10:56:37;;;;;;;11.17;7.43;;;4.80;99.90;;;;;;5050717;28;20522;-84
2024/02/09 10:59:06;;;;;;;15.80;8.97;;;4.80;99.90;;;;;;5038179;28;20185;-85
2024/02/09 11:01:33;;;;;;;11.23;8.07;;;4.90;99.90;;;;;;5050577;28;20655;-84
2024/02/09 11:04:01;;;;;;;18.07;8.67;;;5.00;99.90;;;;;;5035210;28;20201;-84
2024/02/09 11:06:26;;;;;;;10.83;7.73;;;5.00;99.90;;;;;;5050865;28;20488;-84
2024/02/09 11:08:53;;;;;;;11.90;7.97;;;5.00;99.90;;;;;;5050348;28;20573;-84
2024/02/09 11:11:26;;;;;;;14.23;8.10;;;5.00;99.90;;;;;;5048504;28;20205;-83
2024/02/09 11:14:03;;;;;;;13.03;8.30;;;5.00;99.90;;;;;;5040708;28;20178;-84
2024/02/09 11:16:29;;;;;;;11.47;7.50;;;5.00;99.90;;;;;;5038379;28;20201;-84
2024/02/09 11:18:54;;;;;;;12.20;7.67;;;5.00;99.90;;;;;;5050942;28;20204;-84
2024/02/09 11:21:20;;;;;;;10.50;7.73;;;5.00;99.90;;;;;;5032126;28;20184;-84
2024/02/09 11:23:46;;;;;;;10.60;7.83;;;5.00;99.90;;;;;;5032228;28;20190;-84
2024/02/09 11:26:13;;;;;;;12.80;8.83;;;5.00;99.90;;;;;;5032991;28;20272;-84
2024/02/09 11:28:40;;;;;;;13.07;8.73;;;5.00;99.90;;;;;;5033722;28;20494;-84
2024/02/09 11:31:10;;;;;;;11.37;8.47;;;5.00;99.90;;;;;;5050484;28;20208;-84
2024/02/09 11:33:37;;;;;;;16.60;8.57;;;5.10;99.90;;;;;;5041263;28;20607;-83
2024/02/09 11:36:04;;;;;;;13.47;9.00;;;5.00;99.90;;;;;;5034475;28;20236;-82
2024/02/09 11:38:30;;;;;;;17.57;10.40;;;5.10;99.90;;;;;;5033877;28;20235;-82
2024/02/09 11:40:58;;;;;;;21.77;14.90;;;5.10;99.90;;;;;;5050294;28;20189;-83
2024/02/09 11:43:29;;;;;;;24.40;15.27;;;5.10;99.90;;;;;;5035413;28;20187;-82
2024/02/09 11:45:55;;;;;;;14.17;9.43;;;5.10;99.90;;;;;;5049977;28;20247;-82
2024/02/09 11:48:24;;;;;;;13.53;9.33;;;5.20;99.90;;;;;;5035079;28;20492;-84
2024/02/09 11:50:53;;;;;;;14.07;9.37;;;5.20;99.90;;;;;;5051313;28;20177;-83
2024/02/09 11:53:19;;;;;;;13.30;9.20;;;5.30;99.90;;;;;;5049790;28;20197;-84
2024/02/09 11:55:44;;;;;;;15.73;10.47;;;5.40;99.90;;;;;;5049967;28;20257;-83
2024/02/09 11:58:11;;;;;;;14.27;9.83;;;5.40;99.90;;;;;;5048656;28;20523;-83
2024/02/09 12:00:38;;;;;;;14.23;9.10;;;5.40;99.90;;;;;;5050996;28;20194;-84
2024/02/09 12:03:04;;;;;;;13.97;9.40;;;5.50;99.90;;;;;;5049693;28;20695;-85
2024/02/09 12:05:33;;;;;;;16.20;9.30;;;5.50;99.90;;;;;;5039068;28;20500;-83
2024/02/09 12:07:59;;;;;;;13.40;8.87;;;5.60;99.90;;;;;;5033945;28;20228;-82
2024/02/09 12:10:25;;;;;;;12.33;9.23;;;5.70;99.90;;;;;;5038349;28;20174;-83
2024/02/09 12:12:50;;;;;;;15.93;9.90;;;5.70;99.90;;;;;;5049608;28;20581;-83
2024/02/09 12:15:19;;;;;;;15.07;9.93;;;5.80;99.90;;;;;;5050623;28;20186;-82
2024/02/09 12:17:58;;;;;;;15.30;9.97;;;5.90;99.90;;;;;;5034549;28;20209;-81
2024/02/09 12:20:24;;;;;;;16.57;9.30;;;6.00;99.90;;;;;;5035660;28;20515;-84
2024/02/09 12:22:50;;;;;;;15.10;9.57;;;6.10;99.90;;;;;;5037079;28;20276;-84
2024/02/09 12:25:16;;;;;;;13.40;9.57;;;6.10;99.90;;;;;;5032304;28;20208;-83
2024/02/09 12:27:42;;;;;;;14.23;9.90;;;6.20;99.90;;;;;;5031242;28;20628;-83
2024/02/09 12:30:09;;;;;;;14.03;9.73;;;6.40;99.90;;;;;;5035973;28;20305;-85
2024/02/09 12:32:38;;;;;;;15.50;10.37;;;6.50;99.90;;;;;;5031873;28;20612;-84
2024/02/09 12:35:04;;;;;;;15.43;10.10;;;6.50;99.90;;;;;;5031523;28;20194;-85
2024/02/09 12:37:31;;;;;;;15.53;10.30;;;6.70;99.90;;;;;;5032387;28;20255;-84
2024/02/09 12:39:58;;;;;;;17.07;10.37;;;6.80;99.90;;;;;;5031474;28;20224;-83
2024/02/09 12:42:31;;;;;;;14.30;9.63;;;7.00;99.90;;;;;;5032269;28;20539;-84
2024/02/09 12:44:58;;;;;;;14.77;9.37;;;7.20;99.90;;;;;;5031218;28;20281;-83
2024/02/09 12:47:24;;;;;;;13.03;8.93;;;7.30;99.90;;;;;;5051196;28;20181;-84
2024/02/09 12:49:52;;;;;;;11.60;8.13;;;7.40;99.90;;;;;;5050333;28;20178;-84
2024/02/09 12:52:19;;;;;;;14.50;8.70;;;7.50;99.90;;;;;;5049427;28;20174;-85
2024/02/09 12:54:46;;;;;;;15.77;10.00;;;7.60;99.90;;;;;;5049877;28;20189;-83
2024/02/09 12:57:12;;;;;;;17.90;12.40;;;7.60;99.90;;;;;;5032252;28;20209;-83
2024/02/09 12:59:39;;;;;;;18.93;11.57;;;7.60;99.90;;;;;;5035068;28;20516;-83
2024/02/09 13:02:07;;;;;;;20.42;11.95;;;7.70;99.90;;;;;;5036126;28;20201;-83
2024/02/09 13:04:38;;;;;;;14.03;10.13;;;7.60;99.90;;;;;;5032044;28;20632;-82
2024/02/09 13:07:06;;;;;;;13.30;8.70;;;7.60;99.90;;;;;;5035942;28;20186;-85
2024/02/09 13:09:32;;;;;;;17.02;10.38;;;7.70;99.90;;;;;;5034216;28;20178;-83
2024/02/09 13:11:58;;;;;;;15.53;10.23;;;7.80;99.90;;;;;;5053365;28;20192;-85
2024/02/09 13:14:25;;;;;;;14.20;9.15;;;7.90;99.90;;;;;;5035019;28;20185;-85
2024/02/09 13:16:51;;;;;;;13.73;8.80;;;8.00;99.90;;;;;;5035424;28;20535;-84
2024/02/09 13:19:22;;;;;;;15.88;9.60;;;8.00;99.90;;;;;;5036986;28;20178;-83
2024/02/09 13:21:54;;;;;;;13.73;9.57;;;8.10;99.90;;;;;;5033855;28;20562;-84
2024/02/09 13:24:20;;;;;;;12.55;8.63;;;8.10;99.90;;;;;;5037394;28;20197;-83
2024/02/09 13:26:50;;;;;;;14.15;9.45;;;8.20;99.90;;;;;;5055023;28;20260;-83
2024/02/09 13:29:26;;;;;;;12.55;9.23;;;8.20;99.90;;;;;;5051580;28;20557;-84
2024/02/09 13:31:58;;;;;;;13.70;9.32;;;8.20;99.90;;;;;;5033241;28;20182;-83
2024/02/09 13:34:24;;;;;;;12.48;9.43;;;8.30;99.90;;;;;;5035252;28;20639;-82
2024/02/09 13:36:49;;;;;;;14.25;10.70;;;8.30;99.90;;;;;;5053338;28;20209;-84
2024/02/09 13:39:16;;;;;;;18.02;10.85;;;8.30;99.90;;;;;;5033767;28;20346;-85
2024/02/09 13:41:45;;;;;;;14.32;9.25;;;8.40;99.90;;;;;;5034908;28;20186;-82
2024/02/09 13:44:13;;;;;;;14.43;9.90;;;8.40;99.90;;;;;;5034282;28;20181;-82
2024/02/09 13:46:39;;;;;;;14.50;10.10;;;8.40;99.90;;;;;;5055675;28;20173;-83
2024/02/09 13:49:05;;;;;;;13.60;9.65;;;8.40;99.90;;;;;;5038264;28;20227;-82
2024/02/09 13:51:31;;;;;;;13.13;8.88;;;8.40;99.90;;;;;;5038158;28;20185;-83
2024/02/09 13:53:57;;;;;;;13.48;9.10;;;8.40;99.90;;;;;;5037319;28;20231;-83
2024/02/09 13:56:23;;;;;;;15.45;9.52;;;8.40;99.90;;;;;;5055649;28;20210;-83
2024/02/09 13:58:48;;;;;;;13.07;9.25;;;8.50;99.90;;;;;;5033685;28;20639;-86
2024/02/09 14:01:15;;;;;;;13.73;9.25;;;8.50;99.90;;;;;;5052741;28;20186;-82
2024/02/09 14:03:44;;;;;;;10.20;7.88;;;8.60;99.90;;;;;;5033786;28;20277;-83
2024/02/09 14:06:11;;;;;;;9.95;6.50;;;8.60;99.90;;;;;;5037100;28;20196;-83
2024/02/09 14:08:39;;;;;;;7.05;4.72;;;8.70;99.90;;;;;;5051515;28;20273;-85
2024/02/09 14:11:05;;;;;;;5.60;2.88;;;8.90;99.90;;;;;;5032968;28;20205;-83
2024/02/09 14:13:34;;;;;;;6.13;3.55;;;9.20;99.90;;;;;;5052804;28;20182;-84
2024/02/09 14:16:00;;;;;;;9.77;2.90;;;9.50;99.90;;;;;;5052152;28;20339;-85
2024/02/09 14:18:26;;;;;;;4.68;3.20;;;9.60;99.90;;;;;;5034100;28;20249;-85
2024/02/09 14:20:53;;;;;;;7.50;3.03;;;9.70;99.90;;;;;;5037184;28;20636;-84
2024/02/09 14:23:21;;;;;;;7.00;2.58;;;9.90;99.90;;;;;;5050598;28;20233;-85
2024/02/09 14:25:48;;;;;;;7.13;2.90;;;9.90;99.90;;;;;;5035140;28;20177;-85
2024/02/09 14:28:14;;;;;;;3.22;2.75;;;10.00;99.90;;;;;;5035751;28;20211;-85
2024/02/09 14:30:42;;;;;;;8.02;2.67;;;10.00;99.90;;;;;;5034920;28;20220;-84
2024/02/09 14:33:07;;;;;;;3.65;2.42;;;10.00;99.90;;;;;;5036146;28;20234;-85
2024/02/09 14:35:33;;;;;;;5.03;2.72;;;10.20;99.90;;;;;;5054858;28;20612;-86
2024/02/09 14:38:02;;;;;;;5.97;3.15;;;10.30;99.90;;;;;;5053235;28;20651;-86
2024/02/09 14:40:30;;;;;;;7.20;2.63;;;10.30;99.90;;;;;;5033659;28;20181;-86
2024/02/09 14:42:57;;;;;;;7.22;2.03;;;10.40;99.90;;;;;;5034138;28;20288;-85
2024/02/09 14:45:23;;;;;;;5.78;2.35;;;10.50;99.90;;;;;;5050272;28;20260;-86
2024/02/09 14:47:48;;;;;;;3.67;2.17;;;10.50;99.90;;;;;;5032563;28;20331;-86